Terminal Aerodrome Forecast
Issued by NWS Wakefield, VA

Home | Current Version | Previous Version | Text Only | Print | Product List | Glossary On
Versions: 1 2 3 4 5 6 7 8 9 10 11 12 13 14
223
FTUS41 KAKQ 240539
TAFSBY
TAF
KSBY 240539Z 2406/2506 18005KT P6SM SKC
     FM241100 18004KT 3SM BR SCT150
     FM241300 18007KT P6SM BKN050
     FM241900 19009KT P6SM SCT060
     FM250300 17007KT P6SM SCT150=

USA.gov is the U.S. government's official web portal to all federal, state and local government web resources and services.